sensor_id;sensor_type;location;lat;lon;timestamp;pressure;altitude;pressure_sealevel;temperature;humidity
7333;BME280;3707;43.618;25.342;2023-04-05T00:02:16;99708.84;;;6.37;100.00
7333;BME280;3707;43.618;25.342;2023-04-05T00:04:44;99702.00;;;6.37;100.00
7333;BME280;3707;43.618;25.342;2023-04-05T00:07:16;99712.50;;;6.46;100.00
7333;BME280;3707;43.618;25.342;2023-04-05T00:09:43;99704.56;;;6.37;100.00
7333;BME280;3707;43.618;25.342;2023-04-05T00:12:12;99686.91;;;6.18;100.00
7333;BME280;3707;43.618;25.342;2023-04-05T00:14:38;99700.59;;;6.17;100.00
7333;BME280;3707;43.618;25.342;2023-04-05T00:17:05;99706.59;;;6.16;100.00
7333;BME280;3707;43.618;25.342;2023-04-05T00:19:34;99710.13;;;6.21;100.00
7333;BME280;3707;43.618;25.342;2023-04-05T00:22:02;99711.81;;;6.19;100.00
7333;BME280;3707;43.618;25.342;2023-04-05T00:24:29;99709.91;;;6.12;100.00
7333;BME280;3707;43.618;25.342;2023-04-05T00:27:00;99693.66;;;6.13;100.00
7333;BME280;3707;43.618;25.342;2023-04-05T00:29:27;99718.22;;;6.02;100.00
7333;BME280;3707;43.618;25.342;2023-04-05T00:31:54;99712.94;;;5.97;100.00
7333;BME280;3707;43.618;25.342;2023-04-05T00:34:21;99713.00;;;5.99;100.00
7333;BME280;3707;43.618;25.342;2023-04-05T00:36:49;99693.16;;;5.95;100.00
7333;BME280;3707;43.618;25.342;2023-04-05T00:39:16;99637.81;;;5.48;100.00
7333;BME280;3707;43.618;25.342;2023-04-05T00:41:43;99710.44;;;5.71;100.00
7333;BME280;3707;43.618;25.342;2023-04-05T00:44:10;99716.38;;;5.98;100.00
7333;BME280;3707;43.618;25.342;2023-04-05T00:46:37;99714.47;;;5.91;100.00
7333;BME280;3707;43.618;25.342;2023-04-05T00:49:04;99703.06;;;5.83;100.00
7333;BME280;3707;43.618;25.342;2023-04-05T00:51:32;99713.81;;;5.98;100.00
7333;BME280;3707;43.618;25.342;2023-04-05T00:54:01;99717.53;;;5.79;100.00
7333;BME280;3707;43.618;25.342;2023-04-05T00:56:29;99714.06;;;5.77;100.00
7333;BME280;3707;43.618;25.342;2023-04-05T00:58:56;99719.06;;;5.73;100.00
7333;BME280;3707;43.618;25.342;2023-04-05T01:01:24;99709.13;;;5.85;100.00
7333;BME280;3707;43.618;25.342;2023-04-05T01:03:54;99713.00;;;6.01;100.00
7333;BME280;3707;43.618;25.342;2023-04-05T01:06:46;99672.63;;;5.67;100.00
7333;BME280;3707;43.618;25.342;2023-04-05T01:09:32;99704.75;;;5.82;100.00
7333;BME280;3707;43.618;25.342;2023-04-05T01:12:03;99709.09;;;5.83;100.00
7333;BME280;3707;43.618;25.342;2023-04-05T01:14:31;99717.75;;;5.57;100.00
7333;BME280;3707;43.618;25.342;2023-04-05T01:16:58;99698.38;;;5.38;100.00
7333;BME280;3707;43.618;25.342;2023-04-05T01:19:27;99720.22;;;5.53;100.00
7333;BME280;3707;43.618;25.342;2023-04-05T01:25:31;99625.13;;;4.96;100.00
7333;BME280;3707;43.618;25.342;2023-04-05T01:28:28;99707.38;;;5.24;100.00
7333;BME280;3707;43.618;25.342;2023-04-05T01:31:06;99716.78;;;5.24;100.00
7333;BME280;3707;43.618;25.342;2023-04-05T01:33:39;99691.50;;;5.09;100.00
7333;BME280;3707;43.618;25.342;2023-04-05T01:36:15;99710.47;;;5.14;100.00
7333;BME280;3707;43.618;25.342;2023-04-05T01:38:45;99726.97;;;5.21;100.00
7333;BME280;3707;43.618;25.342;2023-04-05T01:41:14;99719.78;;;5.11;100.00
7333;BME280;3707;43.618;25.342;2023-04-05T01:43:41;99702.41;;;5.02;100.00
7333;BME280;3707;43.618;25.342;2023-04-05T01:46:09;99714.97;;;5.21;100.00
7333;BME280;3707;43.618;25.342;2023-04-05T01:48:36;99717.09;;;5.06;100.00
7333;BME280;3707;43.618;25.342;2023-04-05T01:51:03;99723.59;;;4.95;100.00
7333;BME280;3707;43.618;25.342;2023-04-05T01:53:30;99714.66;;;5.11;100.00
7333;BME280;3707;43.618;25.342;2023-04-05T01:55:59;99722.59;;;5.18;100.00
7333;BME280;3707;43.618;25.342;2023-04-05T01:58:26;99716.69;;;5.21;100.00
7333;BME280;3707;43.618;25.342;2023-04-05T02:00:53;99721.63;;;5.15;100.00
7333;BME280;3707;43.618;25.342;2023-04-05T02:03:22;99729.19;;;5.10;100.00
7333;BME280;3707;43.618;25.342;2023-04-05T02:05:48;99727.16;;;5.00;100.00
7333;BME280;3707;43.618;25.342;2023-04-05T02:08:16;99725.53;;;5.02;100.00
7333;BME280;3707;43.618;25.342;2023-04-05T02:10:42;99730.75;;;5.05;100.00
7333;BME280;3707;43.618;25.342;2023-04-05T02:13:10;99733.47;;;4.83;100.00
7333;BME280;3707;43.618;25.342;2023-04-05T02:15:38;99723.50;;;4.92;100.00
7333;BME280;3707;43.618;25.342;2023-04-05T02:18:04;99710.53;;;4.89;100.00
7333;BME280;3707;43.618;25.342;2023-04-05T02:20:33;99725.63;;;5.05;100.00
7333;BME280;3707;43.618;25.342;2023-04-05T02:23:00;99714.84;;;4.90;100.00
7333;BME280;3707;43.618;25.342;2023-04-05T02:25:27;99733.56;;;4.86;100.00
7333;BME280;3707;43.618;25.342;2023-04-05T02:27:54;99735.41;;;4.90;100.00
7333;BME280;3707;43.618;25.342;2023-04-05T02:30:21;99550.66;;;3.86;100.00
7333;BME280;3707;43.618;25.342;2023-04-05T02:32:47;99729.22;;;4.83;100.00
7333;BME280;3707;43.618;25.342;2023-04-05T02:35:14;99732.81;;;4.88;100.00
7333;BME280;3707;43.618;25.342;2023-04-05T02:37:43;99728.66;;;4.92;100.00
7333;BME280;3707;43.618;25.342;2023-04-05T02:40:11;99728.50;;;4.89;100.00
7333;BME280;3707;43.618;25.342;2023-04-05T02:42:39;99707.28;;;4.68;100.00
7333;BME280;3707;43.618;25.342;2023-04-05T02:45:06;99726.38;;;4.76;100.00
7333;BME280;3707;43.618;25.342;2023-04-05T02:47:33;99723.47;;;4.65;100.00
7333;BME280;3707;43.618;25.342;2023-04-05T02:50:00;99714.28;;;4.72;100.00
7333;BME280;3707;43.618;25.342;2023-04-05T02:52:27;99702.28;;;4.71;100.00
7333;BME280;3707;43.618;25.342;2023-04-05T02:54:55;99719.09;;;4.88;100.00
7333;BME280;3707;43.618;25.342;2023-04-05T02:57:22;99726.88;;;4.91;100.00
7333;BME280;3707;43.618;25.342;2023-04-05T02:59:49;99721.56;;;4.85;100.00
7333;BME280;3707;43.618;25.342;2023-04-05T03:02:16;99725.66;;;4.80;100.00
7333;BME280;3707;43.618;25.342;2023-04-05T03:04:43;99640.31;;;4.33;100.00
7333;BME280;3707;43.618;25.342;2023-04-05T03:07:10;99728.25;;;4.80;100.00
7333;BME280;3707;43.618;25.342;2023-04-05T03:09:43;99727.53;;;4.85;100.00
7333;BME280;3707;43.618;25.342;2023-04-05T03:12:12;99737.25;;;4.94;100.00
7333;BME280;3707;43.618;25.342;2023-04-05T03:14:39;99728.44;;;4.86;100.00
7333;BME280;3707;43.618;25.342;2023-04-05T03:17:06;99729.69;;;4.72;100.00
7333;BME280;3707;43.618;25.342;2023-04-05T03:19:32;99727.84;;;4.68;100.00
7333;BME280;3707;43.618;25.342;2023-04-05T03:22:00;99726.22;;;4.70;100.00
7333;BME280;3707;43.618;25.342;2023-04-05T03:24:26;99734.81;;;4.72;100.00
7333;BME280;3707;43.618;25.342;2023-04-05T03:26:53;99734.53;;;4.63;100.00
7333;BME280;3707;43.618;25.342;2023-04-05T03:29:21;99714.03;;;4.64;100.00
7333;BME280;3707;43.618;25.342;2023-04-05T03:31:48;99678.00;;;4.36;100.00
7333;BME280;3707;43.618;25.342;2023-04-05T03:34:15;99710.97;;;4.49;100.00
7333;BME280;3707;43.618;25.342;2023-04-05T03:36:42;99726.84;;;4.64;100.00
7333;BME280;3707;43.618;25.342;2023-04-05T03:39:11;99732.13;;;4.67;100.00
7333;BME280;3707;43.618;25.342;2023-04-05T03:41:39;99706.16;;;4.33;100.00
7333;BME280;3707;43.618;25.342;2023-04-05T03:44:07;99733.59;;;4.61;100.00
7333;BME280;3707;43.618;25.342;2023-04-05T03:46:35;99735.53;;;4.68;100.00
7333;BME280;3707;43.618;25.342;2023-04-05T03:49:02;99741.28;;;4.61;100.00
7333;BME280;3707;43.618;25.342;2023-04-05T03:51:29;99735.16;;;4.56;100.00
7333;BME280;3707;43.618;25.342;2023-04-05T03:53:57;99748.81;;;4.55;100.00
7333;BME280;3707;43.618;25.342;2023-04-05T03:56:23;99741.16;;;4.56;100.00
7333;BME280;3707;43.618;25.342;2023-04-05T03:58:52;99715.25;;;4.48;100.00
7333;BME280;3707;43.618;25.342;2023-04-05T04:01:18;99742.94;;;4.59;100.00
7333;BME280;3707;43.618;25.342;2023-04-05T04:03:47;99747.66;;;4.72;100.00
7333;BME280;3707;43.618;25.342;2023-04-05T04:06:14;99753.72;;;4.74;100.00
7333;BME280;3707;43.618;25.342;2023-04-05T04:08:41;99713.56;;;5.61;100.00
7333;BME280;3707;43.618;25.342;2023-04-05T04:11:07;99741.75;;;5.01;100.00
7333;BME280;3707;43.618;25.342;2023-04-05T04:13:35;99761.88;;;4.87;100.00
7333;BME280;3707;43.618;25.342;2023-04-05T04:16:02;99757.72;;;4.91;100.00
7333;BME280;3707;43.618;25.342;2023-04-05T04:18:29;99761.56;;;4.78;100.00
7333;BME280;3707;43.618;25.342;2023-04-05T04:20:57;99741.41;;;4.64;100.00
7333;BME280;3707;43.618;25.342;2023-04-05T04:23:24;99757.31;;;4.79;100.00
7333;BME280;3707;43.618;25.342;2023-04-05T04:25:51;99758.19;;;4.79;100.00
7333;BME280;3707;43.618;25.342;2023-04-05T04:28:19;99756.69;;;4.86;100.00
7333;BME280;3707;43.618;25.342;2023-04-05T04:30:49;99721.69;;;6.04;100.00
7333;BME280;3707;43.618;25.342;2023-04-05T04:33:16;99731.00;;;5.71;100.00
7333;BME280;3707;43.618;25.342;2023-04-05T04:35:44;99742.44;;;5.80;100.00
7333;BME280;3707;43.618;25.342;2023-04-05T04:38:13;99770.34;;;6.26;100.00
7333;BME280;3707;43.618;25.342;2023-04-05T04:40:45;99778.56;;;6.13;100.00
7333;BME280;3707;43.618;25.342;2023-04-05T04:43:14;99753.94;;;6.23;100.00
7333;BME280;3707;43.618;25.342;2023-04-05T04:45:42;99777.81;;;6.48;100.00
7333;BME280;3707;43.618;25.342;2023-04-05T04:48:11;99774.22;;;6.42;100.00
7333;BME280;3707;43.618;25.342;2023-04-05T04:50:41;99765.22;;;6.28;100.00
7333;BME280;3707;43.618;25.342;2023-04-05T04:53:07;99766.09;;;6.60;100.00
7333;BME280;3707;43.618;25.342;2023-04-05T04:55:36;99788.03;;;7.14;100.00
7333;BME280;3707;43.618;25.342;2023-04-05T04:58:03;99761.38;;;7.14;100.00
7333;BME280;3707;43.618;25.342;2023-04-05T05:00:34;99794.28;;;7.60;100.00
7333;BME280;3707;43.618;25.342;2023-04-05T05:03:02;99776.81;;;7.49;100.00
7333;BME280;3707;43.618;25.342;2023-04-05T05:05:28;99796.63;;;7.49;100.00
7333;BME280;3707;43.618;25.342;2023-04-05T05:07:55;99739.94;;;7.54;100.00
7333;BME280;3707;43.618;25.342;2023-04-05T05:10:23;99798.56;;;7.99;100.00
7333;BME280;3707;43.618;25.342;2023-04-05T05:12:51;99799.38;;;7.58;100.00
7333;BME280;3707;43.618;25.342;2023-04-05T05:15:18;99803.63;;;7.95;100.00
7333;BME280;3707;43.618;25.342;2023-04-05T05:17:45;99797.41;;;7.46;100.00
7333;BME280;3707;43.618;25.342;2023-04-05T05:20:17;99800.47;;;7.30;100.00
7333;BME280;3707;43.618;25.342;2023-04-05T05:22:44;99799.78;;;7.02;100.00
7333;BME280;3707;43.618;25.342;2023-04-05T05:25:11;99797.16;;;7.00;100.00
7333;BME280;3707;43.618;25.342;2023-04-05T05:27:38;99780.78;;;7.73;100.00
7333;BME280;3707;43.618;25.342;2023-04-05T05:30:07;99803.19;;;7.74;100.00
7333;BME280;3707;43.618;25.342;2023-04-05T05:32:34;99802.22;;;6.97;100.00
7333;BME280;3707;43.618;25.342;2023-04-05T05:35:01;99804.81;;;6.64;100.00
7333;BME280;3707;43.618;25.342;2023-04-05T05:37:31;99800.13;;;6.49;100.00
7333;BME280;3707;43.618;25.342;2023-04-05T05:39:58;99800.41;;;6.59;100.00
7333;BME280;3707;43.618;25.342;2023-04-05T05:42:25;99802.63;;;6.45;100.00
7333;BME280;3707;43.618;25.342;2023-04-05T05:44:52;99779.38;;;6.43;100.00
7333;BME280;3707;43.618;25.342;2023-04-05T05:47:21;99807.44;;;6.66;100.00
7333;BME280;3707;43.618;25.342;2023-04-05T05:49:47;99807.03;;;6.51;100.00
7333;BME280;3707;43.618;25.342;2023-04-05T05:52:14;99806.56;;;6.65;100.00
7333;BME280;3707;43.618;25.342;2023-04-05T05:54:41;99777.31;;;6.30;100.00
7333;BME280;3707;43.618;25.342;2023-04-05T05:57:08;99799.97;;;6.43;100.00
7333;BME280;3707;43.618;25.342;2023-04-05T05:59:35;99797.63;;;6.51;100.00
7333;BME280;3707;43.618;25.342;2023-04-05T06:02:02;99786.19;;;6.74;100.00
7333;BME280;3707;43.618;25.342;2023-04-05T06:04:30;99809.41;;;7.09;100.00
7333;BME280;3707;43.618;25.342;2023-04-05T06:06:58;99810.03;;;7.34;100.00
7333;BME280;3707;43.618;25.342;2023-04-05T06:09:27;99811.31;;;7.17;100.00
7333;BME280;3707;43.618;25.342;2023-04-05T06:11:54;99798.28;;;7.10;100.00
7333;BME280;3707;43.618;25.342;2023-04-05T06:14:23;99806.28;;;7.22;100.00
7333;BME280;3707;43.618;25.342;2023-04-05T06:16:50;99830.94;;;7.46;100.00
7333;BME280;3707;43.618;25.342;2023-04-05T06:19:17;99833.13;;;7.31;100.00
7333;BME280;3707;43.618;25.342;2023-04-05T06:21:45;99820.69;;;7.14;100.00
7333;BME280;3707;43.618;25.342;2023-04-05T06:24:12;99830.44;;;6.91;100.00
7333;BME280;3707;43.618;25.342;2023-04-05T06:26:39;99734.84;;;6.80;100.00
7333;BME280;3707;43.618;25.342;2023-04-05T06:29:06;99809.41;;;7.09;100.00
7333;BME280;3707;43.618;25.342;2023-04-05T06:31:34;99820.81;;;7.18;100.00
7333;BME280;3707;43.618;25.342;2023-04-05T06:34:01;99803.59;;;6.83;100.00
7333;BME280;3707;43.618;25.342;2023-04-05T06:36:29;99828.09;;;7.36;100.00
7333;BME280;3707;43.618;25.342;2023-04-05T06:38:57;99832.63;;;7.44;100.00
7333;BME280;3707;43.618;25.342;2023-04-05T06:41:24;99823.25;;;7.49;100.00
7333;BME280;3707;43.618;25.342;2023-04-05T06:43:51;99830.41;;;7.61;100.00
7333;BME280;3707;43.618;25.342;2023-04-05T06:46:18;99845.13;;;7.65;100.00
7333;BME280;3707;43.618;25.342;2023-04-05T06:48:45;99849.34;;;7.62;100.00
7333;BME280;3707;43.618;25.342;2023-04-05T06:51:14;99851.28;;;7.70;100.00
7333;BME280;3707;43.618;25.342;2023-04-05T06:53:41;99854.28;;;7.90;100.00
7333;BME280;3707;43.618;25.342;2023-04-05T06:56:09;99840.47;;;7.51;100.00
7333;BME280;3707;43.618;25.342;2023-04-05T06:58:37;99844.06;;;8.33;100.00
7333;BME280;3707;43.618;25.342;2023-04-05T07:01:03;99862.22;;;7.99;100.00
7333;BME280;3707;43.618;25.342;2023-04-05T07:03:30;99862.50;;;8.52;100.00
7333;BME280;3707;43.618;25.342;2023-04-05T07:05:58;99870.56;;;8.28;100.00
7333;BME280;3707;43.618;25.342;2023-04-05T07:08:26;99848.75;;;8.12;100.00
7333;BME280;3707;43.618;25.342;2023-04-05T07:10:53;99857.69;;;7.87;100.00
7333;BME280;3707;43.618;25.342;2023-04-05T07:13:22;99880.69;;;8.17;100.00
7333;BME280;3707;43.618;25.342;2023-04-05T07:15:49;99865.00;;;8.08;100.00
7333;BME280;3707;43.618;25.342;2023-04-05T07:18:17;99866.75;;;8.50;100.00
7333;BME280;3707;43.618;25.342;2023-04-05T07:20:46;99876.25;;;8.51;100.00
7333;BME280;3707;43.618;25.342;2023-04-05T07:23:13;99805.78;;;8.16;100.00
7333;BME280;3707;43.618;25.342;2023-04-05T07:25:40;99883.38;;;8.64;100.00
7333;BME280;3707;43.618;25.342;2023-04-05T07:28:07;99876.34;;;8.55;100.00
7333;BME280;3707;43.618;25.342;2023-04-05T07:30:35;99874.69;;;8.59;100.00
7333;BME280;3707;43.618;25.342;2023-04-05T07:33:03;99824.91;;;8.25;100.00
7333;BME280;3707;43.618;25.342;2023-04-05T07:35:29;99883.75;;;8.38;100.00
7333;BME280;3707;43.618;25.342;2023-04-05T07:37:56;99883.22;;;8.55;100.00
7333;BME280;3707;43.618;25.342;2023-04-05T07:40:23;99863.75;;;8.72;100.00
7333;BME280;3707;43.618;25.342;2023-04-05T07:42:50;99887.41;;;8.50;100.00
7333;BME280;3707;43.618;25.342;2023-04-05T07:45:17;99891.44;;;8.79;100.00
7333;BME280;3707;43.618;25.342;2023-04-05T07:47:45;99872.47;;;8.77;100.00
7333;BME280;3707;43.618;25.342;2023-04-05T07:50:12;99874.19;;;8.78;100.00
7333;BME280;3707;43.618;25.342;2023-04-05T07:52:39;99883.53;;;9.16;100.00
7333;BME280;3707;43.618;25.342;2023-04-05T07:55:07;99867.72;;;9.01;100.00
7333;BME280;3707;43.618;25.342;2023-04-05T07:57:34;99893.53;;;9.00;100.00
7333;BME280;3707;43.618;25.342;2023-04-05T08:00:01;99886.72;;;9.02;100.00
7333;BME280;3707;43.618;25.342;2023-04-05T08:02:29;99887.00;;;9.18;100.00
7333;BME280;3707;43.618;25.342;2023-04-05T08:04:57;99888.66;;;9.66;100.00
7333;BME280;3707;43.618;25.342;2023-04-05T08:07:24;99872.16;;;9.61;99.30
7333;BME280;3707;43.618;25.342;2023-04-05T08:09:51;99888.66;;;9.66;100.00
7333;BME280;3707;43.618;25.342;2023-04-05T08:12:18;99870.94;;;9.37;99.42
7333;BME280;3707;43.618;25.342;2023-04-05T08:14:44;99883.25;;;9.52;100.00
7333;BME280;3707;43.618;25.342;2023-04-05T08:17:11;99894.41;;;9.50;100.00
7333;BME280;3707;43.618;25.342;2023-04-05T08:19:39;99895.53;;;9.67;100.00
7333;BME280;3707;43.618;25.342;2023-04-05T08:22:07;99896.53;;;9.75;98.15
7333;BME280;3707;43.618;25.342;2023-04-05T08:24:34;99903.97;;;9.54;98.30
7333;BME280;3707;43.618;25.342;2023-04-05T08:27:01;99895.47;;;9.61;94.80
7333;BME280;3707;43.618;25.342;2023-04-05T08:29:28;99892.38;;;9.30;95.12
7333;BME280;3707;43.618;25.342;2023-04-05T08:31:55;99896.75;;;9.88;97.09
7333;BME280;3707;43.618;25.342;2023-04-05T08:34:22;99902.91;;;9.95;94.31
7333;BME280;3707;43.618;25.342;2023-04-05T08:36:49;99901.22;;;10.00;91.57
7333;BME280;3707;43.618;25.342;2023-04-05T08:39:17;99905.50;;;9.95;94.05
7333;BME280;3707;43.618;25.342;2023-04-05T08:42:02;99878.75;;;9.99;93.28
7333;BME280;3707;43.618;25.342;2023-04-05T08:44:30;99913.59;;;10.16;91.19
7333;BME280;3707;43.618;25.342;2023-04-05T08:46:58;99879.34;;;9.77;90.64
7333;BME280;3707;43.618;25.342;2023-04-05T08:49:25;99915.03;;;9.99;91.76
7333;BME280;3707;43.618;25.342;2023-04-05T08:51:54;99890.94;;;10.06;91.35
7333;BME280;3707;43.618;25.342;2023-04-05T08:54:22;99921.88;;;9.95;92.42
7333;BME280;3707;43.618;25.342;2023-04-05T08:56:50;99896.25;;;9.55;94.54
7333;BME280;3707;43.618;25.342;2023-04-05T08:59:19;99899.88;;;9.68;95.09
7333;BME280;3707;43.618;25.342;2023-04-05T09:01:48;99925.66;;;10.14;94.34
7333;BME280;3707;43.618;25.342;2023-04-05T09:04:19;99922.75;;;9.96;95.46
7333;BME280;3707;43.618;25.342;2023-04-05T09:06:47;99908.78;;;9.83;94.36
7333;BME280;3707;43.618;25.342;2023-04-05T09:09:15;99893.34;;;9.37;92.43
7333;BME280;3707;43.618;25.342;2023-04-05T09:11:43;99928.28;;;9.63;95.55
7333;BME280;3707;43.618;25.342;2023-04-05T09:14:10;99923.19;;;9.66;94.97
7333;BME280;3707;43.618;25.342;2023-04-05T09:16:39;99914.66;;;9.75;94.45
7333;BME280;3707;43.618;25.342;2023-04-05T09:19:06;99929.41;;;9.79;93.18
7333;BME280;3707;43.618;25.342;2023-04-05T09:21:58;99919.59;;;9.60;94.03
7333;BME280;3707;43.618;25.342;2023-04-05T09:24:32;99912.31;;;9.90;94.76
7333;BME280;3707;43.618;25.342;2023-04-05T09:27:04;99906.56;;;9.54;95.77
7333;BME280;3707;43.618;25.342;2023-04-05T09:29:32;99919.38;;;9.46;95.44
7333;BME280;3707;43.618;25.342;2023-04-05T09:31:59;99921.25;;;9.56;94.25
7333;BME280;3707;43.618;25.342;2023-04-05T09:34:26;99920.97;;;9.38;94.54
7333;BME280;3707;43.618;25.342;2023-04-05T09:36:53;99921.31;;;9.58;93.07
7333;BME280;3707;43.618;25.342;2023-04-05T09:39:27;99921.03;;;9.95;94.23
7333;BME280;3707;43.618;25.342;2023-04-05T09:42:06;99905.88;;;10.19;89.97
7333;BME280;3707;43.618;25.342;2023-04-05T09:44:54;99915.69;;;10.43;88.89
7333;BME280;3707;43.618;25.342;2023-04-05T09:47:22;99930.00;;;10.17;88.52
7333;BME280;3707;43.618;25.342;2023-04-05T09:49:51;99901.72;;;9.75;91.20
7333;BME280;3707;43.618;25.342;2023-04-05T09:52:22;99918.59;;;10.06;95.29
7333;BME280;3707;43.618;25.342;2023-04-05T09:54:51;99927.03;;;9.92;89.87
7333;BME280;3707;43.618;25.342;2023-04-05T09:57:21;99924.88;;;10.20;89.61
7333;BME280;3707;43.618;25.342;2023-04-05T09:59:48;99914.22;;;10.03;89.25
7333;BME280;3707;43.618;25.342;2023-04-05T10:02:15;99912.63;;;10.11;89.03
7333;BME280;3707;43.618;25.342;2023-04-05T10:04:43;99914.72;;;10.36;88.90
7333;BME280;3707;43.618;25.342;2023-04-05T10:07:12;99926.63;;;10.22;89.38
7333;BME280;3707;43.618;25.342;2023-04-05T10:09:40;99928.75;;;10.51;87.72
7333;BME280;3707;43.618;25.342;2023-04-05T10:12:08;99921.84;;;10.53;87.79
7333;BME280;3707;43.618;25.342;2023-04-05T10:14:37;99933.81;;;10.41;89.05
7333;BME280;3707;43.618;25.342;2023-04-05T10:17:08;99908.59;;;9.73;90.82
7333;BME280;3707;43.618;25.342;2023-04-05T10:19:52;99921.72;;;9.85;93.04
7333;BME280;3707;43.618;25.342;2023-04-05T10:22:22;99914.09;;;9.94;91.89
7333;BME280;3707;43.618;25.342;2023-04-05T10:24:53;99909.19;;;10.12;91.59
7333;BME280;3707;43.618;25.342;2023-04-05T10:27:29;99916.28;;;10.24;91.34
7333;BME280;3707;43.618;25.342;2023-04-05T10:30:09;99915.72;;;10.46;90.33
7333;BME280;3707;43.618;25.342;2023-04-05T10:32:59;99908.88;;;10.51;87.78
7333;BME280;3707;43.618;25.342;2023-04-05T10:35:30;99908.16;;;10.01;90.50
7333;BME280;3707;43.618;25.342;2023-04-05T10:38:10;99911.34;;;10.42;89.91
7333;BME280;3707;43.618;25.342;2023-04-05T10:40:39;99909.41;;;10.27;91.19
7333;BME280;3707;43.618;25.342;2023-04-05T10:43:14;99916.38;;;10.31;87.95
7333;BME280;3707;43.618;25.342;2023-04-05T10:45:46;99883.13;;;10.02;89.39
7333;BME280;3707;43.618;25.342;2023-04-05T10:48:18;99908.09;;;10.60;88.80
7333;BME280;3707;43.618;25.342;2023-04-05T10:50:47;99921.09;;;10.61;87.38
7333;BME280;3707;43.618;25.342;2023-04-05T10:53:14;99920.19;;;10.58;88.89
7333;BME280;3707;43.618;25.342;2023-04-05T10:55:43;99909.78;;;10.55;87.29
7333;BME280;3707;43.618;25.342;2023-04-05T10:58:12;99916.09;;;10.78;88.10
7333;BME280;3707;43.618;25.342;2023-04-05T11:00:39;99907.47;;;10.79;86.61
7333;BME280;3707;43.618;25.342;2023-04-05T11:03:08;99909.78;;;10.56;83.42
7333;BME280;3707;43.618;25.342;2023-04-05T11:05:35;99896.25;;;10.80;85.17
7333;BME280;3707;43.618;25.342;2023-04-05T11:08:05;99913.00;;;11.09;85.61
7333;BME280;3707;43.618;25.342;2023-04-05T11:10:36;99908.81;;;11.23;81.33
7333;BME280;3707;43.618;25.342;2023-04-05T11:13:08;99886.91;;;10.94;83.66
7333;BME280;3707;43.618;25.342;2023-04-05T11:15:36;99909.53;;;11.10;82.51
7333;BME280;3707;43.618;25.342;2023-04-05T11:18:09;99899.13;;;11.06;84.86
7333;BME280;3707;43.618;25.342;2023-04-05T11:20:41;99915.66;;;11.18;82.96
7333;BME280;3707;43.618;25.342;2023-04-05T11:23:08;99903.41;;;11.02;83.57
7333;BME280;3707;43.618;25.342;2023-04-05T11:25:36;99905.34;;;11.24;85.36
7333;BME280;3707;43.618;25.342;2023-04-05T11:28:04;99903.91;;;10.71;87.27
7333;BME280;3707;43.618;25.342;2023-04-05T11:30:47;99908.34;;;10.79;88.24
7333;BME280;3707;43.618;25.342;2023-04-05T11:33:52;99906.78;;;10.93;85.55
7333;BME280;3707;43.618;25.342;2023-04-05T11:36:31;99905.25;;;11.12;86.19
7333;BME280;3707;43.618;25.342;2023-04-05T11:39:23;99904.34;;;11.09;84.84
7333;BME280;3707;43.618;25.342;2023-04-05T11:42:00;99902.41;;;10.89;85.36
7333;BME280;3707;43.618;25.342;2023-04-05T11:44:28;99902.22;;;10.73;86.48
7333;BME280;3707;43.618;25.342;2023-04-05T11:46:56;99911.28;;;10.37;87.29
7333;BME280;3707;43.618;25.342;2023-04-05T11:49:24;99909.34;;;10.92;87.75
7333;BME280;3707;43.618;25.342;2023-04-05T11:51:52;99906.97;;;11.13;87.37
7333;BME280;3707;43.618;25.342;2023-04-05T11:54:28;99912.28;;;11.25;85.79
7333;BME280;3707;43.618;25.342;2023-04-05T11:56:55;99907.13;;;11.28;85.55
7333;BME280;3707;43.618;25.342;2023-04-05T11:59:30;99879.09;;;10.92;88.32
7333;BME280;3707;43.618;25.342;2023-04-05T12:01:58;99904.34;;;12.16;100.00
7333;BME280;3707;43.618;25.342;2023-04-05T12:04:26;99865.00;;;11.64;81.09
7333;BME280;3707;43.618;25.342;2023-04-05T12:07:12;99905.50;;;11.42;83.04
7333;BME280;3707;43.618;25.342;2023-04-05T12:10:03;99921.19;;;11.55;84.33
7333;BME280;3707;43.618;25.342;2023-04-05T12:12:33;99905.22;;;11.09;86.97
7333;BME280;3707;43.618;25.342;2023-04-05T12:15:01;99936.06;;;11.71;88.07
7333;BME280;3707;43.618;25.342;2023-04-05T12:17:41;99924.19;;;11.05;82.98
7333;BME280;3707;43.618;25.342;2023-04-05T12:20:11;99916.00;;;10.69;85.45
7333;BME280;3707;43.618;25.342;2023-04-05T12:22:40;99908.53;;;10.94;93.18
7333;BME280;3707;43.618;25.342;2023-04-05T12:25:08;99916.50;;;11.14;86.95
7333;BME280;3707;43.618;25.342;2023-04-05T12:27:35;99907.75;;;11.06;87.54
7333;BME280;3707;43.618;25.342;2023-04-05T12:30:20;99910.47;;;11.18;88.91
7333;BME280;3707;43.618;25.342;2023-04-05T12:32:50;99903.75;;;11.38;94.36
7333;BME280;3707;43.618;25.342;2023-04-05T12:35:19;99907.75;;;11.05;86.14
7333;BME280;3707;43.618;25.342;2023-04-05T12:37:47;99902.09;;;10.64;87.68
7333;BME280;3707;43.618;25.342;2023-04-05T12:40:19;99909.41;;;10.95;85.45
7333;BME280;3707;43.618;25.342;2023-04-05T12:42:46;99906.69;;;10.86;84.51
7333;BME280;3707;43.618;25.342;2023-04-05T12:45:13;99909.25;;;10.83;87.83
7333;BME280;3707;43.618;25.342;2023-04-05T12:47:49;99901.31;;;10.71;85.27
7333;BME280;3707;43.618;25.342;2023-04-05T12:50:18;99911.44;;;10.50;88.03
7333;BME280;3707;43.618;25.342;2023-04-05T12:52:51;99901.22;;;10.62;88.85
7333;BME280;3707;43.618;25.342;2023-04-05T12:55:18;99907.81;;;11.11;86.47
7333;BME280;3707;43.618;25.342;2023-04-05T12:57:48;99887.59;;;10.79;85.16
7333;BME280;3707;43.618;25.342;2023-04-05T13:00:16;99904.94;;;10.85;86.88
7333;BME280;3707;43.618;25.342;2023-04-05T13:02:47;99907.88;;;11.15;85.81
7333;BME280;3707;43.618;25.342;2023-04-05T13:05:15;99905.06;;;10.97;85.24
7333;BME280;3707;43.618;25.342;2023-04-05T13:07:43;99902.34;;;10.85;87.31
7333;BME280;3707;43.618;25.342;2023-04-05T13:10:11;99889.31;;;10.79;88.68
7333;BME280;3707;43.618;25.342;2023-04-05T13:12:38;99903.31;;;10.93;86.94
7333;BME280;3707;43.618;25.342;2023-04-05T13:15:06;99893.31;;;10.51;87.41
7333;BME280;3707;43.618;25.342;2023-04-05T13:17:33;99842.63;;;10.07;91.51
7333;BME280;3707;43.618;25.342;2023-04-05T13:20:00;99901.34;;;10.74;88.79
7333;BME280;3707;43.618;25.342;2023-04-05T13:22:27;99899.03;;;10.98;88.49
7333;BME280;3707;43.618;25.342;2023-04-05T13:24:55;99899.50;;;10.64;87.85
7333;BME280;3707;43.618;25.342;2023-04-05T13:27:22;99879.09;;;10.19;91.26